Terminal Aerodrome Forecast
Issued by NWS Detroit/Pontiac, MI

Current Version | Previous Version | Text Only | Print | Product List | Glossary On
Versions: 1 2 3 4 5 6 7 8 9 10 11 12 13 14 15 16 17 18 19 20 21 22
581
FTUS43 KDTX 232320
TAFFNT
TAF
KFNT 232320Z 2400/2424 30014G20KT P6SM BKN018 OVC024
     FM240200 31010G19KT P6SM OVC022
     FM240800 31008KT P6SM OVC026
     FM241600 32005KT P6SM BKN035 OVC150=

USA.gov is the U.S. government's official web portal to all federal, state and local government web resources and services.